Time;durP1;ratioP1;P1;durP2;ratioP2;P2;SDS_P1;SDS_P2;PMS_P1;PMS_P2;Temp;Humidity;BMP_temperature;BMP_pressure;BME280_temperature;BME280_humidity;BME280_pressure;Samples;Min_cycle;Max_cycle;Signal;HPM_P1;HPM_P2
2022/10/29 00:00:24;;;;;;;5.93;4.97;;;11.70;99.90;;;;;;5058815;28;20176;-95
2022/10/29 00:02:50;;;;;;;5.00;4.57;;;11.70;99.90;;;;;;5073625;28;20164;-96
2022/10/29 00:05:16;;;;;;;4.70;4.30;;;11.70;99.90;;;;;;5061721;28;20190;-92
2022/10/29 00:07:42;;;;;;;5.37;4.50;;;11.70;99.90;;;;;;5068829;28;20255;-89
2022/10/29 00:10:08;;;;;;;6.30;4.77;;;11.70;99.90;;;;;;5040319;28;20184;-89
2022/10/29 00:12:38;;;;;;;5.83;5.27;;;11.70;99.90;;;;;;5040487;28;20187;-92
2022/10/29 00:15:04;;;;;;;7.00;6.40;;;11.70;99.90;;;;;;5057364;28;20199;-96
2022/10/29 00:17:29;;;;;;;8.10;7.13;;;11.70;99.90;;;;;;5039139;28;20227;-96
2022/10/29 00:19:55;;;;;;;7.90;7.13;;;11.70;99.90;;;;;;5057316;28;20264;-90
2022/10/29 00:22:21;;;;;;;8.30;7.50;;;11.70;99.90;;;;;;5055858;28;20180;-85
2022/10/29 00:24:47;;;;;;;8.90;7.13;;;11.70;99.90;;;;;;5055571;28;20580;-86
2022/10/29 00:27:12;;;;;;;10.60;8.00;;;11.80;99.90;;;;;;5037627;28;20593;-81
2022/10/29 00:29:38;;;;;;;10.00;8.07;;;11.80;99.90;;;;;;5054925;28;20639;-81
2022/10/29 00:32:04;;;;;;;12.67;8.43;;;11.80;99.90;;;;;;5054394;28;20665;-85
2022/10/29 00:34:30;;;;;;;12.97;8.77;;;11.80;99.90;;;;;;5037791;28;20211;-87
2022/10/29 00:36:56;;;;;;;12.07;9.07;;;11.80;99.90;;;;;;5056055;28;20172;-86
2022/10/29 00:39:22;;;;;;;13.37;9.70;;;11.80;99.90;;;;;;5037678;28;20194;-92
2022/10/29 00:41:47;;;;;;;11.30;8.90;;;11.90;99.90;;;;;;5067057;28;20174;-89
2022/10/29 00:44:13;;;;;;;11.13;8.43;;;12.00;99.90;;;;;;5079125;28;20616;-89
2022/10/29 00:46:40;;;;;;;11.60;9.10;;;12.00;99.90;;;;;;5068815;28;20198;-85
2022/10/29 00:49:07;;;;;;;13.77;9.73;;;12.00;99.90;;;;;;5056487;28;20188;-85
2022/10/29 00:51:34;;;;;;;12.70;9.40;;;12.00;99.90;;;;;;5056101;28;20177;-86
2022/10/29 00:54:12;;;;;;;12.50;9.23;;;12.00;99.90;;;;;;5055112;28;20565;-84
2022/10/29 00:56:46;;;;;;;16.10;9.67;;;11.90;99.90;;;;;;5037102;28;20210;-86
2022/10/29 00:59:14;;;;;;;12.17;9.77;;;11.90;99.90;;;;;;5057322;28;20220;-81
2022/10/29 01:01:40;;;;;;;10.70;9.33;;;11.90;99.90;;;;;;5065771;28;20177;-82
2022/10/29 01:04:08;;;;;;;14.40;8.90;;;11.80;99.90;;;;;;5061768;28;20179;-83
2022/10/29 01:06:34;;;;;;;12.07;9.27;;;11.90;99.90;;;;;;5058536;28;20202;-81
2022/10/29 01:08:59;;;;;;;11.73;9.13;;;11.90;99.90;;;;;;5056848;28;20224;-83
2022/10/29 01:11:34;;;;;;;13.43;8.83;;;11.80;99.90;;;;;;5055232;28;20538;-85
2022/10/29 01:14:31;;;;;;;13.40;9.80;;;11.90;99.90;;;;;;5054583;28;20289;-86
2022/10/29 01:17:07;;;;;;;10.80;9.17;;;11.90;99.90;;;;;;5054242;28;20215;-85
2022/10/29 01:19:59;;;;;;;12.03;9.57;;;11.90;99.90;;;;;;5054240;28;20163;-82
2022/10/29 01:22:43;;;;;;;9.53;8.60;;;11.90;99.90;;;;;;5054050;28;20220;-82
2022/10/29 01:25:17;;;;;;;11.30;8.50;;;11.90;99.90;;;;;;5053691;28;20170;-82
2022/10/29 01:27:57;;;;;;;10.23;8.53;;;12.00;99.90;;;;;;5053946;28;20742;-81
2022/10/29 01:30:45;;;;;;;9.70;8.70;;;12.00;99.90;;;;;;5036230;28;20168;-83
2022/10/29 01:33:13;;;;;;;12.83;8.67;;;12.00;99.90;;;;;;5053791;28;20164;-82
2022/10/29 01:36:13;;;;;;;10.23;8.97;;;12.00;99.90;;;;;;5037951;28;20293;-89
2022/10/29 01:38:43;;;;;;;9.83;8.07;;;11.90;99.90;;;;;;5034966;28;20178;-92
2022/10/29 01:41:24;;;;;;;18.07;9.40;;;12.00;99.90;;;;;;5039099;28;20525;-96
2022/10/29 01:43:56;;;;;;;20.60;8.40;;;12.00;99.90;;;;;;5054815;28;20171;-93
2022/10/29 01:46:39;;;;;;;9.80;8.80;;;11.80;99.90;;;;;;5056736;28;20171;-94
2022/10/29 01:49:12;;;;;;;11.67;9.63;;;11.90;99.90;;;;;;5055467;28;20163;-96
2022/10/29 01:51:40;;;;;;;10.97;9.33;;;11.90;99.90;;;;;;5055144;28;20160;-94
2022/10/29 01:54:09;;;;;;;11.27;9.23;;;11.90;99.90;;;;;;5054951;28;20195;-95
2022/10/29 01:56:35;;;;;;;10.40;9.23;;;11.90;99.90;;;;;;5055075;28;20164;-96
2022/10/29 01:59:04;;;;;;;10.33;8.83;;;11.90;99.90;;;;;;5055153;28;20176;-95
2022/10/29 02:02:21;;;;;;;10.77;7.90;;;11.90;99.90;;;;;;5037659;28;20199;-95
2022/10/29 02:05:24;;;;;;;10.37;8.93;;;11.90;99.90;;;;;;4974642;28;20193;-95
2022/10/29 02:07:56;;;;;;;8.30;7.50;;;11.90;99.90;;;;;;4973648;28;20182;-85
2022/10/29 02:10:39;;;;;;;19.50;8.07;;;11.90;99.90;;;;;;5034556;28;20195;-86
2022/10/29 02:13:09;;;;;;;8.77;7.87;;;11.90;99.90;;;;;;5053213;28;20649;-83
2022/10/29 02:15:52;;;;;;;9.17;8.27;;;11.90;99.90;;;;;;5052710;28;20235;-85
2022/10/29 02:18:18;;;;;;;8.70;7.80;;;11.90;99.90;;;;;;5053818;28;20305;-87
2022/10/29 02:20:45;;;;;;;9.03;7.50;;;11.90;99.90;;;;;;5053772;28;20175;-84
2022/10/29 02:23:13;;;;;;;10.87;8.43;;;11.80;99.90;;;;;;5054259;28;20172;-85
2022/10/29 02:25:38;;;;;;;10.77;8.03;;;11.80;99.90;;;;;;5053666;28;20262;-86
2022/10/29 02:28:04;;;;;;;9.00;8.03;;;11.80;99.90;;;;;;5036643;28;20267;-92
2022/10/29 02:30:30;;;;;;;9.37;8.13;;;11.80;99.90;;;;;;5059428;28;20195;-87
2022/10/29 02:32:56;;;;;;;9.83;7.33;;;11.80;99.90;;;;;;5060386;28;20202;-88
2022/10/29 02:35:22;;;;;;;8.50;7.70;;;11.90;99.90;;;;;;5073835;28;20216;-90
2022/10/29 02:37:48;;;;;;;8.20;7.40;;;11.90;99.90;;;;;;5060376;28;20240;-91
2022/10/29 02:40:14;;;;;;;9.97;8.57;;;11.90;99.90;;;;;;5056327;28;20536;-91
2022/10/29 02:42:40;;;;;;;8.60;7.80;;;11.90;99.90;;;;;;5054829;28;20175;-91
2022/10/29 02:45:06;;;;;;;9.10;8.07;;;11.90;99.90;;;;;;5062966;28;20163;-86
2022/10/29 02:47:32;;;;;;;13.27;8.23;;;11.90;99.90;;;;;;5066494;28;20172;-90
2022/10/29 02:49:57;;;;;;;9.87;8.60;;;11.70;99.90;;;;;;5059442;28;20237;-95
2022/10/29 02:52:23;;;;;;;10.63;8.70;;;11.70;99.90;;;;;;5054948;28;20173;-93
2022/10/29 02:54:49;;;;;;;11.40;8.83;;;11.60;99.90;;;;;;5056423;28;20211;-96
2022/10/29 02:57:15;;;;;;;9.83;8.83;;;11.70;99.90;;;;;;5058884;28;20172;-92
2022/10/29 02:59:41;;;;;;;10.27;8.67;;;11.70;99.90;;;;;;5062580;28;20196;-96
2022/10/29 03:02:07;;;;;;;9.87;8.37;;;11.70;99.90;;;;;;5061126;28;20203;-95
2022/10/29 03:04:33;;;;;;;9.47;8.27;;;11.70;99.90;;;;;;5058831;28;20264;-93
2022/10/29 03:06:59;;;;;;;12.70;8.70;;;11.80;99.90;;;;;;5058044;28;20160;-95
2022/10/29 03:09:25;;;;;;;9.57;8.57;;;11.70;99.90;;;;;;5058503;28;20183;-96
2022/10/29 03:11:51;;;;;;;10.03;8.50;;;11.60;99.90;;;;;;5060340;28;20171;-94
2022/10/29 03:14:16;;;;;;;12.37;8.13;;;11.60;99.90;;;;;;5059861;28;20696;-96
2022/10/29 03:16:42;;;;;;;9.30;7.97;;;11.50;99.90;;;;;;5060179;28;20226;-92
2022/10/29 03:19:08;;;;;;;10.50;8.27;;;11.60;99.90;;;;;;5074741;28;20187;-91
2022/10/29 03:21:34;;;;;;;10.30;7.97;;;11.50;99.90;;;;;;5074125;28;20176;-95
2022/10/29 03:23:59;;;;;;;10.33;8.30;;;11.50;99.90;;;;;;5075415;28;20163;-94
2022/10/29 03:26:25;;;;;;;11.13;8.53;;;11.50;99.90;;;;;;5060433;28;20171;-94
2022/10/29 03:28:51;;;;;;;9.53;8.07;;;11.40;99.90;;;;;;5065194;28;20175;-94
2022/10/29 03:31:18;;;;;;;9.23;8.17;;;11.40;99.90;;;;;;5058969;28;20690;-94
2022/10/29 03:33:44;;;;;;;10.87;8.93;;;11.40;99.90;;;;;;5040368;28;20207;-96
2022/10/29 03:36:09;;;;;;;9.07;8.17;;;11.40;99.90;;;;;;5040113;28;20274;-94
2022/10/29 03:38:35;;;;;;;10.33;7.97;;;11.40;99.90;;;;;;5057551;28;20172;-87
2022/10/29 03:41:07;;;;;;;10.43;7.77;;;11.40;99.90;;;;;;5057002;28;20201;-92
2022/10/29 03:43:34;;;;;;;13.13;7.80;;;11.30;99.90;;;;;;5060899;28;20255;-88
2022/10/29 03:46:00;;;;;;;13.67;7.63;;;11.30;99.90;;;;;;5069929;28;20171;-83
2022/10/29 03:48:26;;;;;;;8.80;7.73;;;11.30;99.90;;;;;;5068441;28;20191;-83
2022/10/29 03:51:00;;;;;;;12.10;7.90;;;11.20;99.90;;;;;;5061229;28;20296;-93
2022/10/29 03:53:27;;;;;;;8.57;7.67;;;11.30;99.90;;;;;;5058276;28;20171;-87
2022/10/29 03:55:54;;;;;;;9.10;8.20;;;11.30;99.90;;;;;;5057937;28;20635;-82
2022/10/29 03:58:21;;;;;;;9.00;7.80;;;11.40;99.90;;;;;;5038652;28;20181;-83
2022/10/29 04:01:13;;;;;;;9.17;8.07;;;11.30;99.90;;;;;;5037783;28;20241;-82
2022/10/29 04:03:41;;;;;;;9.40;8.20;;;11.30;99.90;;;;;;5052799;28;20207;-89
2022/10/29 04:06:14;;;;;;;12.10;8.47;;;11.30;99.90;;;;;;5057495;28;20176;-86
2022/10/29 04:08:41;;;;;;;9.20;8.30;;;11.30;99.90;;;;;;5041921;28;20605;-95
2022/10/29 04:11:10;;;;;;;12.03;8.90;;;11.40;99.90;;;;;;5061725;28;20166;-94
2022/10/29 04:13:36;;;;;;;10.37;8.50;;;11.40;99.90;;;;;;5058351;28;20171;-96
2022/10/29 04:16:02;;;;;;;9.50;8.60;;;11.50;99.90;;;;;;5057646;28;20227;-95
2022/10/29 04:18:28;;;;;;;10.07;7.87;;;11.60;99.90;;;;;;5058908;28;20169;-95
2022/10/29 04:20:59;;;;;;;8.57;7.77;;;11.60;99.90;;;;;;5053867;28;20237;-94
2022/10/29 04:23:24;;;;;;;10.20;7.73;;;11.60;99.90;;;;;;5078965;28;20223;-89
2022/10/29 04:25:55;;;;;;;8.23;7.43;;;11.50;99.90;;;;;;5068951;28;20186;-95
2022/10/29 04:28:21;;;;;;;8.20;7.33;;;11.30;99.90;;;;;;5061606;28;20178;-86
2022/10/29 04:30:47;;;;;;;7.97;7.17;;;11.30;99.90;;;;;;5072464;28;20203;-81
2022/10/29 04:33:12;;;;;;;7.97;7.17;;;11.30;99.90;;;;;;5068069;28;20254;-94
2022/10/29 04:35:38;;;;;;;8.23;7.43;;;11.30;99.90;;;;;;5063247;28;20213;-93
2022/10/29 04:38:11;;;;;;;8.90;8.00;;;11.30;99.90;;;;;;5041375;28;20557;-94
2022/10/29 04:40:37;;;;;;;13.77;7.90;;;11.30;99.90;;;;;;5058998;28;20168;-90
2022/10/29 04:43:03;;;;;;;9.23;8.33;;;11.40;99.90;;;;;;5058093;28;20179;-95
2022/10/29 04:45:29;;;;;;;8.50;7.70;;;11.40;99.90;;;;;;5057945;28;20251;-96
2022/10/29 04:48:02;;;;;;;10.47;8.73;;;11.50;99.90;;;;;;5055908;28;20204;-82
2022/10/29 04:50:29;;;;;;;9.50;8.17;;;11.50;99.90;;;;;;5055949;28;20239;-84
2022/10/29 04:53:02;;;;;;;8.63;7.83;;;11.50;99.90;;;;;;5056556;28;20180;-81
2022/10/29 04:55:29;;;;;;;8.90;8.10;;;11.40;99.90;;;;;;5057182;28;20712;-93
2022/10/29 04:57:55;;;;;;;9.70;8.70;;;11.40;99.90;;;;;;5023843;28;20547;-86
2022/10/29 05:00:21;;;;;;;9.47;8.50;;;11.40;99.90;;;;;;5056618;28;20172;-92
2022/10/29 05:02:48;;;;;;;8.63;7.80;;;11.50;99.90;;;;;;5045471;28;20176;-81
2022/10/29 05:05:15;;;;;;;9.30;8.40;;;11.50;99.90;;;;;;5067694;28;20202;-88
2022/10/29 05:07:41;;;;;;;9.33;7.80;;;11.50;99.90;;;;;;5042770;28;20635;-85
2022/10/29 05:10:07;;;;;;;8.53;7.73;;;11.50;99.90;;;;;;5042065;28;20187;-92
2022/10/29 05:12:33;;;;;;;12.00;9.20;;;11.40;99.90;;;;;;5064676;28;20183;-86
2022/10/29 05:14:59;;;;;;;13.17;9.43;;;11.40;99.90;;;;;;5058037;28;20211;-93
2022/10/29 05:17:25;;;;;;;12.00;9.73;;;11.20;99.90;;;;;;5056127;28;20306;-91
2022/10/29 05:19:50;;;;;;;10.60;9.23;;;11.20;99.90;;;;;;5056855;28;20189;-93
2022/10/29 05:22:16;;;;;;;11.00;9.07;;;11.20;99.90;;;;;;5055098;28;20198;-89
2022/10/29 05:24:42;;;;;;;9.30;8.30;;;11.10;99.90;;;;;;5054787;28;20254;-86
2022/10/29 05:27:08;;;;;;;10.83;8.30;;;11.20;99.90;;;;;;5036997;28;20168;-88
2022/10/29 05:29:34;;;;;;;9.27;8.30;;;11.20;99.90;;;;;;5054644;28;20179;-89
2022/10/29 05:31:59;;;;;;;9.60;8.60;;;11.20;99.90;;;;;;5054571;28;20255;-90
2022/10/29 05:34:25;;;;;;;8.73;7.83;;;11.20;99.90;;;;;;5036451;28;20211;-90
2022/10/29 05:36:51;;;;;;;9.13;8.23;;;11.20;99.90;;;;;;5034332;28;20271;-89
2022/10/29 05:39:17;;;;;;;9.20;8.30;;;11.30;99.90;;;;;;5034143;28;20544;-87
2022/10/29 05:41:43;;;;;;;9.90;8.90;;;11.20;99.90;;;;;;5016570;28;20195;-90
2022/10/29 05:44:09;;;;;;;8.80;8.00;;;11.30;99.90;;;;;;5033934;28;20171;-89
2022/10/29 05:46:37;;;;;;;10.13;8.40;;;11.30;99.90;;;;;;5016145;28;20631;-82
2022/10/29 05:49:05;;;;;;;9.33;8.40;;;11.40;99.90;;;;;;5033594;28;20211;-95
2022/10/29 05:51:31;;;;;;;10.57;8.33;;;11.40;99.90;;;;;;5034320;28;20636;-95
2022/10/29 05:53:57;;;;;;;9.07;8.17;;;11.40;99.90;;;;;;5034819;28;20249;-95
2022/10/29 05:56:24;;;;;;;8.43;7.43;;;11.40;99.90;;;;;;5034919;28;20204;-93
2022/10/29 05:58:50;;;;;;;8.23;7.43;;;11.40;99.90;;;;;;5034826;28;20607;-91
2022/10/29 06:01:18;;;;;;;12.17;8.03;;;11.10;99.90;;;;;;5035124;28;20184;-94
2022/10/29 06:03:45;;;;;;;7.97;7.20;;;11.00;99.90;;;;;;5034675;28;20511;-89
2022/10/29 06:06:11;;;;;;;10.20;7.90;;;11.00;99.90;;;;;;5034578;28;20575;-94
2022/10/29 06:08:37;;;;;;;9.00;8.10;;;10.90;99.90;;;;;;5017299;28;20234;-87
2022/10/29 06:11:03;;;;;;;9.53;8.53;;;10.80;99.90;;;;;;5050295;28;20186;-93
2022/10/29 06:13:29;;;;;;;10.93;8.00;;;10.80;99.90;;;;;;5076887;28;20236;-94
2022/10/29 06:15:59;;;;;;;7.93;7.17;;;10.90;99.90;;;;;;5062965;28;20703;-93
2022/10/29 06:18:26;;;;;;;13.93;10.10;;;10.90;99.90;;;;;;5059680;28;20187;-95
2022/10/29 06:20:53;;;;;;;10.90;8.83;;;10.90;99.90;;;;;;5056241;28;20172;-93
2022/10/29 06:23:19;;;;;;;9.10;8.20;;;11.00;99.90;;;;;;5037492;28;20183;-95
2022/10/29 06:25:44;;;;;;;8.33;7.43;;;11.00;99.90;;;;;;5058296;28;20184;-90
2022/10/29 06:28:13;;;;;;;9.00;8.10;;;11.00;99.90;;;;;;5072435;28;20166;-86
2022/10/29 06:30:44;;;;;;;13.53;9.13;;;10.90;99.90;;;;;;5063869;28;20646;-94
2022/10/29 06:33:10;;;;;;;9.13;8.23;;;10.90;99.90;;;;;;5056040;28;20630;-93
2022/10/29 06:35:35;;;;;;;10.00;8.40;;;10.80;99.90;;;;;;5036720;28;20238;-93
2022/10/29 06:38:04;;;;;;;9.20;8.30;;;10.90;99.90;;;;;;5055430;28;20631;-91
2022/10/29 06:40:30;;;;;;;8.83;7.93;;;10.90;99.90;;;;;;5054163;28;20229;-94
2022/10/29 06:43:05;;;;;;;8.70;7.63;;;10.90;99.90;;;;;;5054641;28;20172;-95
2022/10/29 06:45:32;;;;;;;9.63;8.33;;;10.90;99.90;;;;;;5036338;28;20261;-94
2022/10/29 06:47:58;;;;;;;9.53;8.63;;;11.00;99.90;;;;;;5054642;28;20199;-93
2022/10/29 06:50:24;;;;;;;10.93;8.30;;;11.10;99.90;;;;;;5054136;28;20206;-95
2022/10/29 06:53:01;;;;;;;9.27;8.43;;;11.10;99.90;;;;;;5036045;28;20180;-94
2022/10/29 06:55:28;;;;;;;9.97;8.57;;;11.20;99.90;;;;;;5035804;28;20715;-93
2022/10/29 06:58:02;;;;;;;9.23;8.33;;;11.30;99.90;;;;;;5057465;28;20180;-88
2022/10/29 07:00:29;;;;;;;8.60;7.80;;;11.40;99.90;;;;;;5070358;28;20712;-89
2022/10/29 07:02:55;;;;;;;8.83;7.93;;;11.50;99.90;;;;;;5045749;28;20185;-94
2022/10/29 07:05:22;;;;;;;9.20;8.30;;;11.60;99.90;;;;;;5055522;28;20692;-94
2022/10/29 07:07:48;;;;;;;8.23;7.37;;;11.70;99.90;;;;;;5054936;28;20209;-93
2022/10/29 07:10:15;;;;;;;8.43;7.53;;;11.80;99.90;;;;;;5037079;28;20635;-95
2022/10/29 07:12:44;;;;;;;8.10;7.17;;;11.80;99.90;;;;;;5054905;28;20171;-93
2022/10/29 07:15:11;;;;;;;8.57;7.70;;;11.90;99.90;;;;;;5054153;28;20221;-87
2022/10/29 07:17:36;;;;;;;7.40;6.80;;;11.90;99.90;;;;;;5053900;28;20184;-89
2022/10/29 07:20:07;;;;;;;8.47;7.57;;;12.00;99.90;;;;;;5053425;28;20175;-95
2022/10/29 07:22:33;;;;;;;10.53;8.23;;;12.10;99.90;;;;;;5053647;28;20164;-88
2022/10/29 07:24:59;;;;;;;8.70;7.50;;;12.10;99.90;;;;;;5035692;28;20178;-89
2022/10/29 07:27:26;;;;;;;8.43;7.63;;;12.20;99.90;;;;;;5019693;28;20214;-95
2022/10/29 07:29:52;;;;;;;9.83;7.20;;;12.20;99.90;;;;;;5033552;28;20672;-88
2022/10/29 07:32:18;;;;;;;8.07;7.10;;;12.30;99.90;;;;;;5033517;28;20168;-90
2022/10/29 07:34:44;;;;;;;8.10;7.37;;;12.30;99.90;;;;;;5032589;28;20200;-86
2022/10/29 07:37:09;;;;;;;8.30;7.50;;;12.30;99.90;;;;;;5033749;28;20257;-86
2022/10/29 07:39:35;;;;;;;8.13;7.33;;;12.30;99.90;;;;;;5038187;28;20175;-81
2022/10/29 07:42:01;;;;;;;7.90;7.13;;;12.40;99.90;;;;;;5049325;28;20179;-95
2022/10/29 07:44:27;;;;;;;7.80;7.10;;;12.50;99.90;;;;;;5045258;28;20168;-86
2022/10/29 07:46:52;;;;;;;8.13;7.33;;;12.50;99.90;;;;;;5039803;28;20168;-95
2022/10/29 07:49:18;;;;;;;7.60;6.87;;;12.60;99.90;;;;;;5040882;28;20168;-91
2022/10/29 07:51:44;;;;;;;8.10;7.23;;;12.70;99.90;;;;;;5043465;28;20734;-89
2022/10/29 07:54:09;;;;;;;7.43;6.73;;;12.70;99.90;;;;;;5020621;28;20204;-87
2022/10/29 07:56:35;;;;;;;9.13;8.23;;;12.70;99.90;;;;;;5038896;28;20211;-87
2022/10/29 07:59:01;;;;;;;8.20;7.40;;;12.70;99.90;;;;;;5037882;28;20180;-88
2022/10/29 08:01:27;;;;;;;7.77;7.07;;;12.70;99.90;;;;;;5040210;28;20173;-92
2022/10/29 08:03:53;;;;;;;8.07;7.27;;;12.70;99.90;;;;;;5037333;28;20206;-87
2022/10/29 08:06:18;;;;;;;8.20;7.40;;;12.80;99.90;;;;;;5058568;28;20173;-87
2022/10/29 08:08:44;;;;;;;9.00;7.73;;;12.90;99.90;;;;;;5026881;28;20546;-93
2022/10/29 08:11:10;;;;;;;8.37;7.63;;;13.00;99.90;;;;;;5040104;28;20196;-93
2022/10/29 08:13:35;;;;;;;9.00;8.10;;;13.00;99.90;;;;;;5019398;28;20180;-84
2022/10/29 08:16:01;;;;;;;9.57;8.57;;;13.10;99.90;;;;;;5036144;28;20714;-85
2022/10/29 08:18:27;;;;;;;10.67;8.50;;;13.10;99.90;;;;;;5035610;28;20255;-91
2022/10/29 08:20:52;;;;;;;8.47;7.67;;;13.10;99.90;;;;;;5037646;28;20172;-91
2022/10/29 08:23:18;;;;;;;8.93;8.13;;;13.10;99.90;;;;;;5018558;28;20183;-92
2022/10/29 08:25:44;;;;;;;9.67;8.67;;;13.20;99.90;;;;;;5035060;28;20195;-85
2022/10/29 08:28:13;;;;;;;8.53;7.63;;;13.20;99.90;;;;;;5017801;28;20231;-86
2022/10/29 08:30:40;;;;;;;9.93;8.93;;;13.20;99.90;;;;;;5035491;28;20255;-89
2022/10/29 08:33:06;;;;;;;9.53;8.63;;;13.30;99.90;;;;;;5035112;28;20177;-91
2022/10/29 08:35:32;;;;;;;9.73;8.57;;;13.30;99.90;;;;;;5017280;28;20204;-89
2022/10/29 08:37:58;;;;;;;10.00;9.00;;;13.40;99.90;;;;;;5034858;28;20255;-89
2022/10/29 08:40:24;;;;;;;9.30;8.37;;;13.50;99.90;;;;;;5034955;28;20204;-90
2022/10/29 08:43:01;;;;;;;9.80;8.80;;;13.50;99.90;;;;;;5035467;28;20527;-91
2022/10/29 08:45:34;;;;;;;9.00;8.10;;;13.60;99.90;;;;;;5035898;28;20674;-82
2022/10/29 08:48:21;;;;;;;8.50;7.70;;;13.60;99.90;;;;;;5021216;28;20172;-81
2022/10/29 08:50:55;;;;;;;8.70;7.90;;;13.70;99.90;;;;;;5023234;28;20177;-87
2022/10/29 08:53:26;;;;;;;8.87;7.97;;;13.60;99.90;;;;;;5036136;28;20243;-83
2022/10/29 08:55:51;;;;;;;8.93;8.07;;;13.60;99.90;;;;;;5035200;28;20242;-83
2022/10/29 08:58:39;;;;;;;8.87;8.03;;;13.50;99.90;;;;;;5034730;28;20180;-81
2022/10/29 09:01:10;;;;;;;7.80;7.10;;;13.40;99.90;;;;;;5035163;28;20628;-86
2022/10/29 09:03:36;;;;;;;9.13;8.23;;;13.30;99.90;;;;;;5034811;28;20171;-86
2022/10/29 09:06:18;;;;;;;8.93;8.13;;;13.20;99.90;;;;;;5034613;28;20177;-82
2022/10/29 09:09:16;;;;;;;8.47;7.67;;;13.20;99.90;;;;;;5034905;28;20682;-85
2022/10/29 09:11:42;;;;;;;9.50;8.50;;;13.10;99.90;;;;;;5000518;28;20271;-86
2022/10/29 09:14:31;;;;;;;9.00;8.10;;;13.00;99.90;;;;;;5049936;28;20217;-82
2022/10/29 09:17:31;;;;;;;9.47;8.57;;;13.00;99.90;;;;;;5018045;28;20232;-88
2022/10/29 09:20:22;;;;;;;9.80;8.50;;;13.00;99.90;;;;;;5036286;28;20275;-84
2022/10/29 09:23:08;;;;;;;9.47;8.57;;;13.00;99.90;;;;;;5037253;28;20192;-86
2022/10/29 09:26:04;;;;;;;9.07;7.87;;;13.00;99.90;;;;;;5022938;28;20236;-84
2022/10/29 09:28:56;;;;;;;8.63;7.83;;;13.10;99.90;;;;;;5035316;28;20153;-82
2022/10/29 09:31:33;;;;;;;8.57;7.60;;;13.10;99.90;;;;;;5018448;28;20172;-84
2022/10/29 09:34:16;;;;;;;8.87;7.50;;;13.20;99.90;;;;;;5035852;28;20197;-93
2022/10/29 09:36:44;;;;;;;11.30;7.60;;;13.30;99.90;;;;;;5019992;28;20191;-87
2022/10/29 09:39:32;;;;;;;9.23;7.87;;;13.40;99.90;;;;;;5038347;28;20180;-85
2022/10/29 09:42:01;;;;;;;10.60;7.87;;;13.50;99.90;;;;;;5036121;28;20165;-87
2022/10/29 09:44:38;;;;;;;8.27;7.47;;;13.60;99.90;;;;;;5017607;28;20181;-90
2022/10/29 09:47:13;;;;;;;8.30;7.37;;;13.70;99.90;;;;;;5034666;28;20184;-87
2022/10/29 09:50:10;;;;;;;8.50;7.60;;;13.70;99.90;;;;;;5034356;28;20175;-83
2022/10/29 09:52:39;;;;;;;7.70;6.90;;;13.80;99.90;;;;;;5037474;28;20166;-87
2022/10/29 09:55:10;;;;;;;7.20;6.50;;;13.80;99.90;;;;;;5035595;28;20275;-83
2022/10/29 09:57:37;;;;;;;7.00;6.40;;;13.90;99.90;;;;;;5033777;28;20161;-83
2022/10/29 10:00:16;;;;;;;6.77;6.27;;;13.90;99.90;;;;;;5050229;28;20229;-91
2022/10/29 10:02:48;;;;;;;6.77;6.17;;;14.00;99.90;;;;;;5057505;28;20152;-91
2022/10/29 10:05:21;;;;;;;7.27;6.67;;;14.10;99.90;;;;;;5044698;28;20191;-89
2022/10/29 10:08:13;;;;;;;6.73;6.00;;;14.20;99.90;;;;;;5038094;28;20148;-93
2022/10/29 10:10:51;;;;;;;6.27;5.77;;;14.20;99.90;;;;;;5036033;28;20166;-91
2022/10/29 10:13:18;;;;;;;6.70;6.10;;;14.30;99.90;;;;;;5035144;28;20184;-94
2022/10/29 10:15:58;;;;;;;6.37;5.77;;;14.40;99.90;;;;;;5018335;28;20768;-93
2022/10/29 10:18:30;;;;;;;7.20;6.50;;;14.50;99.90;;;;;;5037184;28;20707;-94
2022/10/29 10:21:30;;;;;;;5.90;5.47;;;14.60;99.90;;;;;;5047152;28;20163;-83
2022/10/29 10:23:57;;;;;;;5.37;4.97;;;14.60;99.90;;;;;;5039332;28;20636;-92
2022/10/29 10:26:29;;;;;;;5.80;5.10;;;;;;;;;;5035299;28;20179;-92
2022/10/29 10:29:15;;;;;;;5.90;5.33;;;14.80;99.90;;;;;;5025318;28;20165;-95
2022/10/29 10:31:43;;;;;;;5.33;4.93;;;15.00;99.90;;;;;;5032578;28;20182;-95
2022/10/29 10:34:20;;;;;;;5.40;4.90;;;15.00;99.90;;;;;;5048728;28;20205;-86
2022/10/29 10:37:17;;;;;;;4.93;4.63;;;15.10;99.90;;;;;;5053791;28;20265;-86
2022/10/29 10:39:54;;;;;;;5.37;4.87;;;15.20;99.90;;;;;;5060736;23;20706;-82
2022/10/29 10:42:21;;;;;;;5.20;4.90;;;15.30;99.90;;;;;;5067926;28;20187;-86
2022/10/29 10:44:55;;;;;;;5.37;4.73;;;15.40;99.90;;;;;;5060796;28;20357;-92
2022/10/29 10:47:24;;;;;;;7.10;4.60;;;15.50;99.90;;;;;;5044448;28;20186;-95
2022/10/29 10:49:50;;;;;;;4.47;4.17;;;15.50;99.90;;;;;;5044337;28;20164;-95
2022/10/29 10:52:24;;;;;;;5.20;4.40;;;15.70;99.90;;;;;;5041785;28;20199;-86
2022/10/29 10:54:58;;;;;;;4.73;4.30;;;15.80;99.90;;;;;;5051706;28;20202;-88
2022/10/29 10:57:30;;;;;;;6.10;4.13;;;15.90;99.90;;;;;;5055758;28;20148;-82
2022/10/29 11:00:02;;;;;;;5.87;4.40;;;16.00;99.90;;;;;;5058455;28;20172;-82
2022/10/29 11:02:56;;;;;;;6.03;3.93;;;16.10;99.90;;;;;;5051503;28;20161;-81
2022/10/29 11:05:31;;;;;;;4.63;4.23;;;16.20;99.90;;;;;;5044673;28;20169;-82
2022/10/29 11:08:00;;;;;;;3.87;3.63;;;16.20;99.90;;;;;;5047479;28;20160;-80
2022/10/29 11:10:35;;;;;;;4.80;3.97;;;16.30;99.90;;;;;;5045590;28;20179;-80
2022/10/29 11:13:09;;;;;;;4.30;3.90;;;16.40;99.90;;;;;;5043186;28;20812;-81
2022/10/29 11:15:45;;;;;;;4.17;3.77;;;16.50;99.90;;;;;;5041678;28;20196;-81
2022/10/29 11:18:18;;;;;;;4.10;3.80;;;16.60;99.90;;;;;;5045800;28;20164;-80
2022/10/29 11:21:03;;;;;;;4.60;4.20;;;16.60;99.90;;;;;;5047953;28;20157;-81
2022/10/29 11:23:47;;;;;;;5.43;4.57;;;16.60;99.90;;;;;;5049754;28;20156;-88
2022/10/29 11:29:11;;;;;;;5.70;4.30;;;17.00;99.90;;;;;;5068240;28;20287;-80
2022/10/29 11:32:09;;;;;;;5.13;4.00;;;17.10;99.90;;;;;;5051842;28;20187;-80
2022/10/29 11:35:14;;;;;;;3.77;3.50;;;17.20;99.90;;;;;;5055649;28;20197;-80
2022/10/29 11:37:51;;;;;;;4.57;3.70;;;17.30;99.90;;;;;;5239633;22;20201;-80
2022/10/29 11:40:31;;;;;;;4.07;3.70;;;17.30;99.90;;;;;;5038840;28;20332;-80
2022/10/29 11:42:56;;;;;;;3.90;3.60;;;17.40;99.90;;;;;;5042370;28;20164;-80
2022/10/29 11:45:44;;;;;;;4.00;3.70;;;17.40;99.90;;;;;;5060369;28;20171;-80
2022/10/29 11:51:02;;;;;;;3.93;3.40;;;17.50;99.90;;;;;;4129053;26;20286;-81
2022/10/29 11:53:57;;;;;;;4.13;3.73;;;17.50;99.90;;;;;;5060206;28;20169;-80
2022/10/29 11:56:28;;;;;;;4.17;3.33;;;17.50;99.90;;;;;;5043408;28;20197;-80
2022/10/29 11:59:01;;;;;;;4.80;3.50;;;17.50;99.90;;;;;;5039422;28;20646;-80
2022/10/29 12:01:48;;;;;;;4.50;3.77;;;17.60;99.90;;;;;;5055997;28;20263;-81
2022/10/29 12:04:20;;;;;;;8.63;3.70;;;17.50;99.90;;;;;;5053408;28;20176;-81
2022/10/29 12:07:13;;;;;;;4.20;3.90;;;17.60;99.90;;;;;;5035841;28;20246;-81
2022/10/29 12:09:56;;;;;;;4.63;3.77;;;17.70;99.90;;;;;;5053113;28;20213;-80
2022/10/29 12:12:38;;;;;;;4.97;3.87;;;17.80;99.90;;;;;;5050523;28;20302;-80
2022/10/29 12:15:39;;;;;;;7.73;3.97;;;17.80;99.90;;;;;;5036441;28;20208;-81
2022/10/29 12:18:10;;;;;;;6.03;4.13;;;17.80;99.90;;;;;;5049822;28;20191;-85
2022/10/29 12:20:45;;;;;;;4.03;3.60;;;17.90;99.90;;;;;;5034508;28;20169;-83
2022/10/29 12:23:24;;;;;;;3.53;3.23;;;17.90;99.90;;;;;;5050662;28;20164;-82
2022/10/29 12:26:12;;;;;;;4.30;3.40;;;17.90;99.90;;;;;;5110348;22;20239;-82
2022/10/29 12:28:59;;;;;;;4.73;3.43;;;17.10;99.90;;;;;;5043296;28;20176;-81
2022/10/29 12:31:27;;;;;;;3.80;3.40;;;18.00;99.90;;;;;;5055032;28;20190;-82
2022/10/29 12:34:05;;;;;;;4.67;3.40;;;18.00;99.90;;;;;;5146227;22;20225;-82
2022/10/29 12:36:50;;;;;;;6.00;3.50;;;18.00;99.90;;;;;;5030489;28;20169;-82
2022/10/29 12:39:29;;;;;;;4.30;3.20;;;18.00;99.90;;;;;;5095580;22;20270;-82
2022/10/29 12:42:18;;;;;;;3.83;3.53;;;18.00;99.90;;;;;;5066723;28;20168;-91
2022/10/29 12:45:02;;;;;;;3.57;3.13;;;18.10;99.90;;;;;;5060113;28;20172;-95
2022/10/29 12:47:54;;;;;;;5.83;3.50;;;18.10;99.90;;;;;;5064142;28;20174;-94
2022/10/29 12:50:48;;;;;;;4.60;3.90;;;18.20;99.90;;;;;;5076223;28;20636;-93
2022/10/29 12:53:19;;;;;;;4.47;3.93;;;18.20;99.90;;;;;;5067974;28;20592;-94
2022/10/29 12:55:46;;;;;;;3.73;3.03;;;18.20;99.90;;;;;;5058231;28;20264;-94
2022/10/29 12:58:42;;;;;;;6.03;4.10;;;18.30;99.90;;;;;;5076297;28;20266;-95
2022/10/29 13:01:27;;;;;;;3.80;3.20;;;18.30;99.90;;;;;;5057835;28;20692;-94
2022/10/29 13:03:55;;;;;;;3.87;3.43;;;18.50;99.90;;;;;;5075530;28;20170;-95
2022/10/29 13:06:54;;;;;;;3.83;3.50;;;18.50;99.90;;;;;;5060152;28;20171;-95
2022/10/29 13:09:31;;;;;;;4.77;3.63;;;18.70;99.90;;;;;;5061770;28;20175;-93
2022/10/29 13:12:01;;;;;;;4.40;3.17;;;18.80;99.90;;;;;;5052591;28;20646;-94
2022/10/29 13:14:32;;;;;;;3.50;3.20;;;;;;;;;;5046685;28;20661;-93